createdAt,value
2019-02-11T00:00:24.782Z,96512.38
2019-02-11T00:02:54.585Z,96508.83
2019-02-11T00:05:22.655Z,96501.49
2019-02-11T00:07:50.807Z,96512.90
2019-02-11T00:10:18.824Z,96509.05
2019-02-11T00:12:46.764Z,96501.70
2019-02-11T00:15:14.751Z,96500.13
2019-02-11T00:17:42.784Z,96490.94
2019-02-11T00:20:10.632Z,96496.83
2019-02-11T00:22:38.727Z,96492.88
2019-02-11T00:25:06.870Z,96486.05
2019-02-11T00:27:34.871Z,96488.45
2019-02-11T00:30:02.760Z,96483.48
2019-02-11T00:32:30.839Z,96477.56
2019-02-11T00:34:58.904Z,96477.77
2019-02-11T00:37:26.774Z,96476.84
2019-02-11T00:39:54.375Z,96480.19
2019-02-11T00:42:22.273Z,96473.63
2019-02-11T00:44:50.357Z,96484.98
2019-02-11T00:47:18.691Z,96474.20
2019-02-11T00:49:46.689Z,96478.86
2019-02-11T00:52:14.597Z,96461.14
2019-02-11T00:54:42.649Z,96460.08
2019-02-11T00:57:10.616Z,96461.38
2019-02-11T00:59:38.582Z,96466.81
2019-02-11T01:02:06.689Z,96470.45
2019-02-11T01:04:34.796Z,96466.20
2019-02-11T01:07:02.665Z,96458.63
2019-02-11T01:09:30.673Z,96449.61
2019-02-11T01:11:58.533Z,96452.34
2019-02-11T01:14:26.623Z,96454.38
2019-02-11T01:16:54.622Z,96441.61
2019-02-11T01:19:24.094Z,96447.70
2019-02-11T01:21:52.099Z,96443.33
2019-02-11T01:24:19.998Z,96437.67
2019-02-11T01:26:48.033Z,96431.49
2019-02-11T01:29:15.804Z,96427.27
2019-02-11T01:31:43.736Z,96412.58
2019-02-11T01:34:11.791Z,96419.53
2019-02-11T01:36:39.714Z,96405.25
2019-02-11T01:39:07.693Z,96409.02
2019-02-11T01:41:36.883Z,96410.04
2019-02-11T01:44:04.648Z,96412.77
2019-02-11T01:46:32.488Z,96411.45
2019-02-11T01:49:00.655Z,96404.88
2019-02-11T01:51:28.750Z,96396.34
2019-02-11T01:53:56.981Z,96400.08
2019-02-11T01:56:25.182Z,96405.61
2019-02-11T01:58:53.199Z,96409.81
2019-02-11T02:01:21.154Z,96396.05
2019-02-11T02:03:49.335Z,96400.92
2019-02-11T02:06:19.474Z,96382.92
2019-02-11T02:08:47.433Z,96377.12
2019-02-11T02:11:15.594Z,96378.98
2019-02-11T02:13:45.114Z,96382.55
2019-02-11T02:16:13.222Z,96378.80
2019-02-11T02:18:41.244Z,96375.22
2019-02-11T02:21:09.044Z,96372.05
2019-02-11T02:23:36.906Z,96373.55
2019-02-11T02:26:05.013Z,96377.20
2019-02-11T02:28:33.105Z,96390.78
2019-02-11T02:31:01.249Z,96391.80
2019-02-11T02:33:29.419Z,96395.09
2019-02-11T02:35:57.548Z,96402.03
2019-02-11T02:38:25.523Z,96411.23
2019-02-11T02:40:53.650Z,96414.58
2019-02-11T02:43:22.616Z,96414.41
2019-02-11T02:45:50.690Z,96416.47
2019-02-11T02:48:18.698Z,96414.58
2019-02-11T02:50:46.695Z,96417.38
2019-02-11T02:53:14.915Z,96416.80
2019-02-11T02:55:42.948Z,96420.95
2019-02-11T02:58:10.771Z,96411.92
2019-02-11T03:00:39.056Z,96408.38
2019-02-11T03:03:07.081Z,96408.92
2019-02-11T03:05:35.191Z,96399.55
2019-02-11T03:08:03.146Z,96406.68
2019-02-11T03:10:31.480Z,96403.13
2019-02-11T03:12:59.650Z,96398.05
2019-02-11T03:15:27.582Z,96400.45
2019-02-11T03:17:55.413Z,96403.38
2019-02-11T03:20:23.356Z,96398.22
2019-02-11T03:22:51.220Z,96397.53
2019-02-11T03:25:19.028Z,96392.02
2019-02-11T03:27:46.916Z,96380.75
2019-02-11T03:30:14.855Z,96387.70
2019-02-11T03:32:42.779Z,96393.52
2019-02-11T03:35:10.877Z,96391.50
2019-02-11T03:37:38.759Z,96393.35
2019-02-11T03:40:06.962Z,96409.02
2019-02-11T03:42:34.713Z,96410.09
2019-02-11T03:45:02.680Z,96415.34
2019-02-11T03:47:30.474Z,96428.45
2019-02-11T03:49:58.525Z,96420.71
2019-02-11T03:52:26.532Z,96431.52
2019-02-11T03:54:54.550Z,96428.27
2019-02-11T03:57:22.935Z,96419.44
2019-02-11T03:59:50.999Z,96430.16
2019-02-11T04:02:19.034Z,96439.64
2019-02-11T04:04:47.157Z,96451.60
2019-02-11T04:07:15.097Z,96455.03
2019-02-11T04:09:43.185Z,96458.89
2019-02-11T04:12:11.395Z,96458.07
2019-02-11T04:14:39.328Z,96441.84
2019-02-11T04:17:07.230Z,96459.00
2019-02-11T04:19:35.150Z,96457.25
2019-02-11T04:22:07.108Z,96473.94
2019-02-11T04:24:35.008Z,96496.38
2019-02-11T04:27:03.275Z,96498.67
2019-02-11T04:29:31.265Z,96503.33
2019-02-11T04:31:59.113Z,96507.05
2019-02-11T04:34:27.182Z,96504.84
2019-02-11T04:36:55.249Z,96501.52
2019-02-11T04:39:23.387Z,96489.47
2019-02-11T04:41:51.438Z,96474.52
2019-02-11T04:44:19.541Z,96474.38
2019-02-11T04:46:47.589Z,96471.90
2019-02-11T04:49:15.643Z,96472.28
2019-02-11T04:51:43.495Z,96471.13
2019-02-11T04:54:11.461Z,96457.97
2019-02-11T04:56:39.467Z,96444.34
2019-02-11T04:59:07.496Z,96448.58
2019-02-11T05:01:35.373Z,96434.19
2019-02-11T05:04:03.553Z,96450.63
2019-02-11T05:06:31.451Z,96455.26
2019-02-11T05:08:59.580Z,96455.41
2019-02-11T05:11:27.355Z,96451.13
2019-02-11T05:13:55.319Z,96459.57
2019-02-11T05:16:23.088Z,96459.89
2019-02-11T05:18:51.052Z,96458.85
2019-02-11T05:21:18.940Z,96447.39
2019-02-11T05:23:46.897Z,96465.30
2019-02-11T05:26:14.971Z,96474.20
2019-02-11T05:28:43.030Z,96468.52
2019-02-11T05:31:11.194Z,96458.63
2019-02-11T05:33:39.307Z,96470.61
2019-02-11T05:36:07.622Z,96486.16
2019-02-11T05:38:35.625Z,96481.23
2019-02-11T05:41:03.658Z,96458.27
2019-02-11T05:43:32.740Z,96456.42
2019-02-11T05:46:00.715Z,96451.96
2019-02-11T05:48:28.882Z,96464.53
2019-02-11T05:50:56.934Z,96462.52
2019-02-11T05:53:25.207Z,96467.22
2019-02-11T05:55:53.275Z,96466.52
2019-02-11T05:58:21.364Z,96475.47
2019-02-11T06:00:52.364Z,96476.84
2019-02-11T06:03:20.386Z,96483.11
2019-02-11T06:05:48.715Z,96481.70
2019-02-11T06:08:16.719Z,96482.41
2019-02-11T06:10:45.009Z,96492.88
2019-02-11T06:13:12.909Z,96504.44
2019-02-11T06:15:40.649Z,96519.29
2019-02-11T06:18:08.291Z,96523.61
2019-02-11T06:20:35.950Z,96532.37
2019-02-11T06:23:03.585Z,96540.23
2019-02-11T06:25:31.303Z,96552.70
2019-02-11T06:27:59.028Z,96559.98
2019-02-11T06:30:27.650Z,96565.72
2019-02-11T06:32:55.420Z,96583.21
2019-02-11T06:35:23.116Z,96589.72
2019-02-11T06:37:50.649Z,96586.80
2019-02-11T06:40:18.262Z,96595.79
2019-02-11T06:42:45.822Z,96605.45
2019-02-11T06:45:13.631Z,96606.14
2019-02-11T06:47:41.266Z,96609.02
2019-02-11T06:50:09.808Z,96620.73
2019-02-11T06:52:37.336Z,96627.77
2019-02-11T06:55:06.133Z,96620.89
2019-02-11T06:57:33.787Z,96625.41
2019-02-11T07:00:01.745Z,96629.09
2019-02-11T07:02:29.397Z,96639.63
2019-02-11T07:04:57.070Z,96652.68
2019-02-11T07:07:24.746Z,96653.42
2019-02-11T07:09:52.579Z,96655.69
2019-02-11T07:12:20.477Z,96656.41
2019-02-11T07:14:48.145Z,96669.73
2019-02-11T07:17:15.870Z,96658.02
2019-02-11T07:19:43.567Z,96648.79
2019-02-11T07:22:11.331Z,96650.66
2019-02-11T07:24:40.197Z,96663.45
2019-02-11T07:27:07.955Z,96666.06
2019-02-11T07:29:35.562Z,96672.97
2019-02-11T07:32:03.236Z,96680.95
2019-02-11T07:34:30.918Z,96671.33
2019-02-11T07:36:58.593Z,96668.41
2019-02-11T07:39:26.239Z,96669.59
2019-02-11T07:42:25.277Z,96666.48
2019-02-11T07:44:57.941Z,96663.83
2019-02-11T07:47:25.841Z,96667.59
2019-02-11T07:49:53.548Z,96672.92
2019-02-11T07:52:26.682Z,96664.95
2019-02-11T07:54:50.678Z,96675.06
2019-02-11T07:57:18.286Z,96690.80
2019-02-11T07:59:45.855Z,96692.46
2019-02-11T08:02:13.517Z,96686.47
2019-02-11T08:04:41.092Z,96680.25
2019-02-11T08:07:10.402Z,96686.41
2019-02-11T08:09:38.141Z,96693.64
2019-02-11T08:12:05.872Z,96689.64
2019-02-11T08:14:33.570Z,96689.89
2019-02-11T08:17:02.161Z,96697.06
2019-02-11T08:19:29.774Z,96684.44
2019-02-11T08:21:57.404Z,96685.05
2019-02-11T08:24:25.127Z,96688.61
2019-02-11T08:26:52.807Z,96701.86
2019-02-11T08:29:20.513Z,96693.70
2019-02-11T08:31:48.250Z,96691.80
2019-02-11T08:34:15.946Z,96696.81
2019-02-11T08:36:43.674Z,96705.81
2019-02-11T08:39:11.685Z,96712.09
2019-02-11T08:41:39.299Z,96712.38
2019-02-11T08:44:06.940Z,96711.14
2019-02-11T08:46:34.526Z,96709.91
2019-02-11T08:49:02.124Z,96725.32
2019-02-11T08:51:29.754Z,96725.95
2019-02-11T08:53:57.413Z,96730.48
2019-02-11T08:56:25.082Z,96723.86
2019-02-11T08:58:52.749Z,96733.19
2019-02-11T09:01:20.404Z,96736.27
2019-02-11T09:03:48.067Z,96745.23
2019-02-11T09:06:15.798Z,96740.58
2019-02-11T09:08:43.501Z,96737.88
2019-02-11T09:11:11.245Z,96745.24
2019-02-11T09:13:38.915Z,96755.28
2019-02-11T09:16:06.661Z,96770.09
2019-02-11T09:18:34.400Z,96769.84
2019-02-11T09:21:02.098Z,96767.16
2019-02-11T09:23:29.786Z,96763.67
2019-02-11T09:25:57.369Z,96764.08
2019-02-11T09:28:26.053Z,96767.55
2019-02-11T09:30:53.630Z,96762.75
2019-02-11T09:33:21.180Z,96759.05
2019-02-11T09:35:48.777Z,96768.84
2019-02-11T09:38:16.507Z,96777.87
2019-02-11T09:40:44.079Z,96783.41
2019-02-11T09:43:11.663Z,96780.83
2019-02-11T09:45:39.254Z,96778.02
2019-02-11T09:48:06.884Z,96780.00
2019-02-11T09:50:42.950Z,96770.66
2019-02-11T09:53:10.592Z,96779.70
2019-02-11T09:55:38.217Z,96771.67
2019-02-11T09:58:05.908Z,96783.23
2019-02-11T10:00:33.474Z,96783.97
2019-02-11T10:03:01.106Z,96790.08
2019-02-11T10:05:28.754Z,96797.19
2019-02-11T10:07:57.541Z,96800.28
2019-02-11T10:10:25.117Z,96808.48
2019-02-11T10:12:52.777Z,96810.13
2019-02-11T10:15:20.445Z,96820.57
2019-02-11T10:17:48.067Z,96820.07
2019-02-11T10:20:17.297Z,96832.25
2019-02-11T10:22:44.908Z,96827.00
2019-02-11T10:25:15.167Z,96822.05
2019-02-11T10:27:42.776Z,96824.21
2019-02-11T10:30:11.759Z,96817.89
2019-02-11T10:32:40.552Z,96814.03
2019-02-11T10:35:09.098Z,96810.59
2019-02-11T10:37:36.671Z,96817.15
2019-02-11T10:40:05.078Z,96817.27
2019-02-11T10:42:32.656Z,96819.66
2019-02-11T10:45:00.233Z,96819.02
2019-02-11T10:47:27.791Z,96817.58
2019-02-11T10:49:55.368Z,96813.20
2019-02-11T10:52:22.911Z,96809.58
2019-02-11T10:54:50.616Z,96814.91
2019-02-11T10:57:18.494Z,96820.27
2019-02-11T10:59:46.188Z,96809.84
2019-02-11T11:02:13.965Z,96799.08
2019-02-11T11:04:41.662Z,96784.48
2019-02-11T11:07:09.386Z,96798.45
2019-02-11T11:09:37.066Z,96810.70
2019-02-11T11:12:04.848Z,96801.94
2019-02-11T11:14:32.631Z,96808.58
2019-02-11T11:17:03.139Z,96812.19
2019-02-11T11:19:30.844Z,96799.11
2019-02-11T11:21:59.153Z,96806.74
2019-02-11T11:24:26.915Z,96817.76
2019-02-11T11:26:54.687Z,96808.22
2019-02-11T11:29:22.375Z,96809.27
2019-02-11T11:31:49.916Z,96813.22
2019-02-11T11:34:17.606Z,96817.39
2019-02-11T11:36:45.219Z,96836.63
2019-02-11T11:39:19.367Z,96826.81
2019-02-11T11:41:46.970Z,96829.92
2019-02-11T11:44:14.605Z,96840.51
2019-02-11T11:46:47.175Z,96847.19
2019-02-11T11:49:11.868Z,96853.14
2019-02-11T11:51:40.634Z,96865.20
2019-02-11T11:54:08.394Z,96861.13
2019-02-11T11:56:36.006Z,96883.87
2019-02-11T11:59:03.795Z,96875.25
2019-02-11T12:01:31.485Z,96873.78
2019-02-11T12:03:59.172Z,96869.10
2019-02-11T12:06:26.942Z,96891.44
2019-02-11T12:08:58.714Z,96916.98
2019-02-11T12:11:24.202Z,96911.12
2019-02-11T12:13:51.834Z,96908.13
2019-02-11T12:16:19.443Z,96916.38
2019-02-11T12:18:47.132Z,96915.03
2019-02-11T12:21:14.763Z,96914.50
2019-02-11T12:23:42.391Z,96907.28
2019-02-11T12:26:10.043Z,96916.24
2019-02-11T12:28:38.703Z,96913.47
2019-02-11T12:31:06.835Z,96911.39
2019-02-11T12:33:34.584Z,96913.07
2019-02-11T12:36:02.254Z,96913.78
2019-02-11T12:38:29.899Z,96915.38
2019-02-11T12:40:57.500Z,96905.45
2019-02-11T12:43:25.120Z,96909.44
2019-02-11T12:45:52.708Z,96913.30
2019-02-11T12:48:20.522Z,96918.38
2019-02-11T12:50:48.242Z,96921.07
2019-02-11T12:53:16.257Z,96917.07
2019-02-11T12:55:43.995Z,96923.03
2019-02-11T12:58:12.706Z,96933.83
2019-02-11T13:00:40.512Z,96917.58
2019-02-11T13:03:08.239Z,96915.80
2019-02-11T13:05:44.803Z,96922.66
2019-02-11T13:08:05.357Z,96947.66
2019-02-11T13:10:32.972Z,96938.98
2019-02-11T13:13:00.605Z,96942.13
2019-02-11T13:15:56.470Z,96925.69
2019-02-11T13:17:58.087Z,96937.63
2019-02-11T13:20:27.449Z,96949.02
2019-02-11T13:22:55.122Z,96939.21
2019-02-11T13:25:22.822Z,96962.89
2019-02-11T13:27:50.583Z,96966.25
2019-02-11T13:30:19.241Z,96962.11
2019-02-11T13:32:46.932Z,96972.06
2019-02-11T13:35:14.713Z,96968.56
2019-02-11T13:37:42.313Z,96979.84
2019-02-11T13:40:11.225Z,96989.77
2019-02-11T13:42:38.817Z,97005.02
2019-02-11T13:45:10.736Z,96992.27
2019-02-11T13:47:52.435Z,97012.14
2019-02-11T13:50:08.820Z,96995.48
2019-02-11T13:52:36.454Z,97005.94
2019-02-11T13:55:04.464Z,97022.00
2019-02-11T13:57:32.219Z,97009.69
2019-02-11T13:59:59.858Z,97013.05
2019-02-11T14:02:27.529Z,97036.14
2019-02-11T14:04:55.124Z,97025.23
2019-02-11T14:07:22.922Z,97026.95
2019-02-11T14:09:50.490Z,97025.41
2019-02-11T14:12:18.247Z,97032.25
2019-02-11T14:14:45.792Z,97033.48
2019-02-11T14:17:13.421Z,97033.57
2019-02-11T14:19:41.103Z,97038.45
2019-02-11T14:22:09.060Z,97042.28
2019-02-11T14:24:36.998Z,97050.23
2019-02-11T14:27:04.945Z,97049.31
2019-02-11T14:29:32.949Z,97053.91
2019-02-11T14:32:01.213Z,97053.22
2019-02-11T14:34:28.908Z,97058.16
2019-02-11T14:36:56.730Z,97056.22
2019-02-11T14:39:24.989Z,97066.03
2019-02-11T14:41:52.820Z,97065.75
2019-02-11T14:44:20.677Z,97074.91
2019-02-11T14:46:48.494Z,97083.13
2019-02-11T14:49:16.312Z,97088.97
2019-02-11T14:51:44.076Z,97086.38
2019-02-11T14:54:11.833Z,97092.03
2019-02-11T14:56:39.683Z,97097.37
2019-02-11T14:59:07.395Z,97099.24
2019-02-11T15:01:35.153Z,97093.19
2019-02-11T15:04:02.839Z,97094.81
2019-02-11T15:06:33.235Z,97085.20
2019-02-11T15:09:00.992Z,97094.68
2019-02-11T15:11:30.395Z,97100.25
2019-02-11T15:13:58.097Z,97097.92
2019-02-11T15:16:25.896Z,97103.38
2019-02-11T15:18:53.540Z,97107.84
2019-02-11T15:21:21.107Z,97109.55
2019-02-11T15:23:48.781Z,97116.61
2019-02-11T15:26:22.119Z,97108.16
2019-02-11T15:28:49.757Z,97118.74
2019-02-11T15:31:17.467Z,97109.91
2019-02-11T15:33:45.187Z,97110.88
2019-02-11T15:36:15.588Z,97119.98
2019-02-11T15:38:43.250Z,97112.85
2019-02-11T15:41:11.021Z,97125.13
2019-02-11T15:43:38.713Z,97128.04
2019-02-11T15:46:07.286Z,97132.02
2019-02-11T15:48:42.601Z,97129.31
2019-02-11T15:51:04.437Z,97124.27
2019-02-11T15:53:32.138Z,97130.77
2019-02-11T15:56:06.556Z,97140.14
2019-02-11T15:58:29.538Z,97148.92
2019-02-11T16:00:57.117Z,97143.58
2019-02-11T16:03:24.732Z,97148.61
2019-02-11T16:05:52.323Z,97162.62
2019-02-11T16:08:20.121Z,97155.19
2019-02-11T16:10:47.675Z,97157.48
2019-02-11T16:13:15.325Z,97165.66
2019-02-11T16:15:42.909Z,97182.16
2019-02-11T16:18:10.590Z,97184.89
2019-02-11T16:20:38.192Z,97182.51
2019-02-11T16:23:06.887Z,97172.66
2019-02-11T16:25:34.409Z,97183.30
2019-02-11T16:28:02.102Z,97183.69
2019-02-11T16:30:29.705Z,97183.23
2019-02-11T16:32:57.462Z,97205.28
2019-02-11T16:35:25.081Z,97206.45
2019-02-11T16:37:52.734Z,97200.27
2019-02-11T16:40:22.552Z,97206.84
2019-02-11T16:42:50.305Z,97217.66
2019-02-11T16:45:17.884Z,97212.25
2019-02-11T16:47:45.648Z,97218.83
2019-02-11T16:50:13.373Z,97229.89
2019-02-11T16:52:41.019Z,97242.13
2019-02-11T16:55:08.801Z,97232.84
2019-02-11T16:57:37.517Z,97238.94
2019-02-11T17:00:06.899Z,97232.06
2019-02-11T17:02:34.593Z,97239.02
2019-02-11T17:05:02.489Z,97254.87
2019-02-11T17:07:30.229Z,97260.50
2019-02-11T17:09:58.016Z,97267.88
2019-02-11T17:12:25.839Z,97268.23
2019-02-11T17:14:53.597Z,97271.63
2019-02-11T17:17:21.311Z,97291.59
2019-02-11T17:19:49.105Z,97283.31
2019-02-11T17:22:16.846Z,97290.84
2019-02-11T17:24:44.547Z,97303.03
2019-02-11T17:27:12.237Z,97295.73
2019-02-11T17:29:39.839Z,97308.09
2019-02-11T17:32:07.411Z,97313.29
2019-02-11T17:34:35.124Z,97320.98
2019-02-11T17:37:02.722Z,97324.56
2019-02-11T17:39:30.454Z,97333.30
2019-02-11T17:41:58.467Z,97329.81
2019-02-11T17:44:29.110Z,97329.81
2019-02-11T17:46:56.757Z,97338.39
2019-02-11T17:49:24.784Z,97324.73
2019-02-11T17:51:53.464Z,97336.30
2019-02-11T17:54:21.104Z,97340.00
2019-02-11T17:56:48.737Z,97355.78
2019-02-11T17:59:16.466Z,97345.03
2019-02-11T18:01:44.225Z,97345.72
2019-02-11T18:04:12.974Z,97339.22
2019-02-11T18:06:40.761Z,97344.89
2019-02-11T18:09:10.258Z,97348.87
2019-02-11T18:11:39.536Z,97349.75
2019-02-11T18:14:07.446Z,97371.00
2019-02-11T18:16:35.097Z,97366.36
2019-02-11T18:19:02.812Z,97364.61
2019-02-11T18:21:30.502Z,97342.81
2019-02-11T18:23:58.204Z,97369.73
2019-02-11T18:26:27.106Z,97357.97
2019-02-11T18:28:54.736Z,97366.64
2019-02-11T18:31:22.492Z,97355.56
2019-02-11T18:33:50.303Z,97383.27
2019-02-11T18:36:18.355Z,97367.23
2019-02-11T18:38:46.130Z,97382.61
2019-02-11T18:41:13.829Z,97373.80
2019-02-11T18:43:41.831Z,97394.07
2019-02-11T18:46:09.429Z,97399.17
2019-02-11T18:48:37.063Z,97399.69
2019-02-11T18:51:04.714Z,97404.77
2019-02-11T18:53:32.707Z,97408.25
2019-02-11T18:56:00.388Z,97423.63
2019-02-11T18:58:28.032Z,97418.70
2019-02-11T19:00:55.708Z,97426.64
2019-02-11T19:03:23.295Z,97431.73
2019-02-11T19:05:50.974Z,97423.52
2019-02-11T19:08:18.549Z,97429.11
2019-02-11T19:10:46.218Z,97430.70
2019-02-11T19:13:13.982Z,97448.83
2019-02-11T19:15:41.714Z,97455.40
2019-02-11T19:18:13.466Z,97463.29
2019-02-11T19:20:42.116Z,97464.94
2019-02-11T19:23:09.720Z,97462.66
2019-02-11T19:25:37.352Z,97473.56
2019-02-11T19:28:04.970Z,97486.83
2019-02-11T19:30:32.557Z,97476.13
2019-02-11T19:33:00.311Z,97460.78
2019-02-11T19:35:27.912Z,97491.69
2019-02-11T19:37:55.518Z,97485.27
2019-02-11T19:40:23.115Z,97493.00
2019-02-11T19:42:50.743Z,97507.59
2019-02-11T19:45:18.723Z,97507.87
2019-02-11T19:47:46.357Z,97512.84
2019-02-11T19:50:14.602Z,97512.73
2019-02-11T19:52:43.341Z,97516.95
2019-02-11T19:55:11.180Z,97521.35
2019-02-11T19:57:38.922Z,97521.13
2019-02-11T20:00:10.009Z,97524.68
2019-02-11T20:02:37.746Z,97539.66
2019-02-11T20:05:06.186Z,97527.31
2019-02-11T20:07:40.911Z,97531.84
2019-02-11T20:10:10.083Z,97532.78
2019-02-11T20:12:37.867Z,97545.98
2019-02-11T20:15:07.456Z,97554.92
2019-02-11T20:17:35.140Z,97556.39
2019-02-11T20:20:02.772Z,97555.31
2019-02-11T20:22:30.389Z,97560.52
2019-02-11T20:24:57.976Z,97557.69
2019-02-11T20:27:25.749Z,97564.14
2019-02-11T20:29:53.355Z,97563.66
2019-02-11T20:32:21.215Z,97573.59
2019-02-11T20:34:48.953Z,97574.27
2019-02-11T20:37:17.179Z,97579.70
2019-02-11T20:39:45.561Z,97579.39
2019-02-11T20:42:14.984Z,97577.06
2019-02-11T20:44:42.858Z,97571.23
2019-02-11T20:47:10.636Z,97580.95
2019-02-11T20:49:38.410Z,97601.19
2019-02-11T20:52:06.196Z,97596.70
2019-02-11T20:54:34.066Z,97601.25
2019-02-11T20:57:01.799Z,97607.73
2019-02-11T20:59:29.368Z,97608.13
2019-02-11T21:01:57.067Z,97607.80
2019-02-11T21:04:24.623Z,97607.08
2019-02-11T21:06:52.371Z,97606.17
2019-02-11T21:09:22.514Z,97603.99
2019-02-11T21:11:50.291Z,97607.99
2019-02-11T21:14:17.870Z,97611.02
2019-02-11T21:16:45.915Z,97619.02
2019-02-11T21:19:13.531Z,97609.67
2019-02-11T21:21:43.217Z,97613.21
2019-02-11T21:24:10.823Z,97617.76
2019-02-11T21:26:38.760Z,97616.75
2019-02-11T21:29:06.647Z,97619.92
2019-02-11T21:31:34.857Z,97614.27
2019-02-11T21:34:03.013Z,97606.55
2019-02-11T21:36:31.112Z,97620.89
2019-02-11T21:38:58.837Z,97631.29
2019-02-11T21:41:26.500Z,97628.37
2019-02-11T21:43:54.315Z,97627.66
2019-02-11T21:46:21.993Z,97629.48
2019-02-11T21:48:51.474Z,97627.45
2019-02-11T21:51:19.407Z,97627.11
2019-02-11T21:53:47.122Z,97628.56
2019-02-11T21:56:14.834Z,97633.17
2019-02-11T21:58:42.582Z,97637.11
2019-02-11T22:01:10.391Z,97641.05
2019-02-11T22:03:39.179Z,97643.63
2019-02-11T22:06:06.919Z,97656.11
2019-02-11T22:08:35.061Z,97655.65
2019-02-11T22:11:03.170Z,97668.28
2019-02-11T22:13:32.239Z,97666.86
2019-02-11T22:16:00.328Z,97663.89
2019-02-11T22:18:28.384Z,97670.20
2019-02-11T22:20:56.130Z,97685.36
2019-02-11T22:23:23.760Z,97684.14
2019-02-11T22:25:51.317Z,97688.00
2019-02-11T22:28:19.134Z,97678.27
2019-02-11T22:30:46.762Z,97679.96
2019-02-11T22:33:15.546Z,97683.53
2019-02-11T22:35:43.173Z,97682.97
2019-02-11T22:38:10.725Z,97683.48
2019-02-11T22:40:38.323Z,97680.96
2019-02-11T22:43:06.174Z,97693.48
2019-02-11T22:45:34.168Z,97695.41
2019-02-11T22:48:01.778Z,97693.83
2019-02-11T22:50:29.408Z,97700.09
2019-02-11T22:52:57.235Z,97709.83
2019-02-11T22:55:24.791Z,97711.20
2019-02-11T22:57:52.842Z,97718.97
2019-02-11T23:00:28.157Z,97719.43
2019-02-11T23:02:55.909Z,97716.97
2019-02-11T23:05:23.490Z,97726.02
2019-02-11T23:07:51.207Z,97730.50
2019-02-11T23:10:19.020Z,97742.59
2019-02-11T23:12:46.687Z,97738.66
2019-02-11T23:15:14.497Z,97743.28
2019-02-11T23:17:42.172Z,97746.02
2019-02-11T23:20:10.139Z,97745.70
2019-02-11T23:22:38.147Z,97746.47
2019-02-11T23:25:06.058Z,97753.73
2019-02-11T23:27:34.197Z,97750.78
2019-02-11T23:30:02.671Z,97755.67
2019-02-11T23:32:30.338Z,97759.27
2019-02-11T23:34:58.072Z,97765.20
2019-02-11T23:37:25.706Z,97772.39
2019-02-11T23:39:53.291Z,97780.88
2019-02-11T23:42:20.962Z,97788.06
2019-02-11T23:44:48.505Z,97789.70
2019-02-11T23:47:16.278Z,97795.80
2019-02-11T23:49:44.368Z,97803.58
2019-02-11T23:52:12.097Z,97803.08
2019-02-11T23:54:39.665Z,97797.42
2019-02-11T23:57:07.451Z,97807.61
2019-02-11T23:59:35.038Z,97813.89
